Time;durP1;ratioP1;P1;durP2;ratioP2;P2;SDS_P1;SDS_P2;PMS_P1;PMS_P2;Temp;Humidity;BMP_temperature;BMP_pressure;BME280_temperature;BME280_humidity;BME280_pressure;Samples;Min_cycle;Max_cycle;Signal;HPM_P1;HPM_P2
2022/10/22 00:01:30;;;;;;;5.18;1.30;;;13.60;99.90;;;;;;4981363;28;20090;-93
2022/10/22 00:03:55;;;;;;;4.97;1.30;;;13.60;99.90;;;;;;4981008;28;20097;-93
2022/10/22 00:06:21;;;;;;;10.30;1.50;;;13.50;99.90;;;;;;4982843;28;20007;-93
2022/10/22 00:08:47;;;;;;;3.35;1.40;;;13.60;99.90;;;;;;4986006;28;20061;-93
2022/10/22 00:11:15;;;;;;;7.15;1.60;;;13.50;99.90;;;;;;4985683;28;20046;-95
2022/10/22 00:13:41;;;;;;;6.05;1.67;;;13.50;99.90;;;;;;4985526;28;20050;-96
2022/10/22 00:16:08;;;;;;;4.40;1.67;;;13.50;99.90;;;;;;4984378;28;20026;-94
2022/10/22 00:18:34;;;;;;;5.60;1.95;;;13.50;99.90;;;;;;4985115;28;20026;-93
2022/10/22 00:21:00;;;;;;;8.23;1.48;;;13.50;99.90;;;;;;4985105;28;20091;-92
2022/10/22 00:23:26;;;;;;;8.32;1.63;;;13.50;99.90;;;;;;4985267;28;20023;-94
2022/10/22 00:25:55;;;;;;;8.35;1.45;;;13.50;99.90;;;;;;4985229;28;20046;-94
2022/10/22 00:28:22;;;;;;;9.48;2.08;;;13.50;99.90;;;;;;4984391;28;20070;-95
2022/10/22 00:30:47;;;;;;;3.42;1.40;;;13.50;99.90;;;;;;4984640;28;20038;-94
2022/10/22 00:33:13;;;;;;;6.28;1.40;;;13.50;99.90;;;;;;4984650;28;20038;-94
2022/10/22 00:35:39;;;;;;;7.90;1.13;;;13.50;99.90;;;;;;4984326;28;20102;-94
2022/10/22 00:38:04;;;;;;;10.15;1.35;;;13.50;99.90;;;;;;4984756;28;20011;-95
2022/10/22 00:40:30;;;;;;;10.02;1.58;;;13.50;99.90;;;;;;4984358;28;20019;-94
2022/10/22 00:42:56;;;;;;;7.25;1.90;;;13.50;99.90;;;;;;4984540;28;20107;-95
2022/10/22 00:45:26;;;;;;;9.98;1.40;;;13.50;99.90;;;;;;4985828;28;20117;-95
2022/10/22 00:48:26;;;;;;;8.48;1.73;;;13.50;99.90;;;;;;5003955;28;20037;-94
2022/10/22 00:50:58;;;;;;;5.75;1.13;;;13.50;99.90;;;;;;5000087;28;20026;-95
2022/10/22 00:53:58;;;;;;;5.40;1.10;;;13.50;99.90;;;;;;5004987;28;20046;-94
2022/10/22 00:56:24;;;;;;;8.48;1.58;;;13.50;99.90;;;;;;5000922;28;20030;-93
2022/10/22 00:58:54;;;;;;;7.18;1.20;;;13.50;99.90;;;;;;5003772;28;20038;-93
2022/10/22 01:01:23;;;;;;;9.10;1.30;;;13.50;99.90;;;;;;5003489;28;20098;-94
2022/10/22 01:03:50;;;;;;;3.55;1.13;;;13.50;99.90;;;;;;5003523;28;20023;-94
2022/10/22 01:06:26;;;;;;;10.07;1.50;;;13.50;99.90;;;;;;5003152;28;20039;-94
2022/10/22 01:09:06;;;;;;;6.95;1.38;;;13.50;99.90;;;;;;5002839;28;20050;-96
2022/10/22 01:11:38;;;;;;;5.55;1.73;;;13.50;99.90;;;;;;5001858;28;20025;-95
2022/10/22 01:14:32;;;;;;;7.63;1.45;;;13.50;99.90;;;;;;5002179;28;20026;-94
2022/10/22 01:17:52;;;;;;;7.78;1.67;;;13.50;99.90;;;;;;5002020;28;20054;-94
2022/10/22 01:20:34;;;;;;;4.55;1.70;;;13.50;99.90;;;;;;4979838;28;20041;-94
2022/10/22 01:23:31;;;;;;;6.60;1.50;;;13.50;99.90;;;;;;4981301;28;20007;-94
2022/10/22 01:26:19;;;;;;;5.72;1.30;;;13.50;99.90;;;;;;4977939;28;20195;-95
2022/10/22 01:29:10;;;;;;;3.97;1.52;;;13.50;99.90;;;;;;4981455;28;20035;-94
2022/10/22 01:31:43;;;;;;;8.93;1.67;;;13.50;99.90;;;;;;4974373;28;20038;-95
2022/10/22 01:34:11;;;;;;;4.68;1.20;;;13.50;99.90;;;;;;4994626;28;20115;-95
2022/10/22 01:36:38;;;;;;;2.72;1.20;;;13.50;99.90;;;;;;4971140;28;20069;-94
2022/10/22 01:39:05;;;;;;;3.45;1.05;;;13.50;99.90;;;;;;4975303;28;20031;-96
2022/10/22 01:41:33;;;;;;;4.95;1.40;;;13.50;99.90;;;;;;4981912;28;20031;-94
2022/10/22 01:43:59;;;;;;;7.47;1.20;;;13.50;99.90;;;;;;4982643;28;20039;-93
2022/10/22 01:46:27;;;;;;;6.07;1.30;;;13.50;99.90;;;;;;4982709;28;20031;-93
2022/10/22 01:48:56;;;;;;;4.55;1.40;;;13.50;99.90;;;;;;4977017;28;20046;-94
2022/10/22 01:51:34;;;;;;;3.83;1.27;;;13.50;99.90;;;;;;4973935;28;20045;-95
2022/10/22 01:54:30;;;;;;;5.32;1.52;;;13.50;99.90;;;;;;4971676;28;20078;-95
2022/10/22 01:57:14;;;;;;;7.47;1.38;;;13.50;99.90;;;;;;4980581;28;20034;-94
2022/10/22 01:59:49;;;;;;;10.13;1.52;;;13.50;99.90;;;;;;4982464;28;20034;-95
2022/10/22 02:02:36;;;;;;;4.00;1.30;;;13.40;99.90;;;;;;4979989;28;20277;-95
2022/10/22 02:05:20;;;;;;;3.42;1.52;;;13.40;99.90;;;;;;4980263;28;20017;-94
2022/10/22 02:08:00;;;;;;;4.20;1.15;;;13.50;99.90;;;;;;4977734;28;20059;-95
2022/10/22 02:10:30;;;;;;;1.70;0.85;;;13.40;99.90;;;;;;4967475;28;20030;-93
2022/10/22 02:12:57;;;;;;;2.13;0.98;;;13.40;99.90;;;;;;4981871;28;20030;-94
2022/10/22 02:15:25;;;;;;;1.90;1.00;;;13.40;99.90;;;;;;4979234;28;20043;-95
2022/10/22 02:17:52;;;;;;;2.92;0.70;;;13.40;99.90;;;;;;4974147;28;20575;-95
2022/10/22 02:20:28;;;;;;;3.35;1.30;;;13.40;99.90;;;;;;4968322;28;20539;-94
2022/10/22 02:22:55;;;;;;;2.67;0.70;;;13.40;99.90;;;;;;4962828;28;20023;-96
2022/10/22 02:25:22;;;;;;;4.82;0.80;;;13.40;99.90;;;;;;4965401;28;20039;-96
2022/10/22 02:28:03;;;;;;;4.13;0.70;;;13.40;99.90;;;;;;4962756;28;20030;-95
2022/10/22 02:30:31;;;;;;;2.33;0.82;;;13.30;99.90;;;;;;4962675;28;20058;-93
2022/10/22 02:33:08;;;;;;;6.75;1.15;;;13.30;99.90;;;;;;4972735;28;20034;-95
2022/10/22 02:35:35;;;;;;;5.78;0.98;;;13.30;99.90;;;;;;4984074;28;20034;-96
2022/10/22 02:38:02;;;;;;;5.13;1.20;;;13.30;99.90;;;;;;4979365;28;20030;-93
2022/10/22 02:40:31;;;;;;;5.43;1.27;;;13.30;99.90;;;;;;4982889;28;20046;-95
2022/10/22 02:42:58;;;;;;;6.63;1.13;;;13.30;99.90;;;;;;4981445;28;20087;-93
2022/10/22 02:45:24;;;;;;;3.30;1.20;;;13.30;99.90;;;;;;4981086;28;20014;-93
2022/10/22 02:47:50;;;;;;;2.53;1.23;;;13.30;99.90;;;;;;4995782;28;20039;-94
2022/10/22 02:50:16;;;;;;;5.43;1.10;;;13.20;99.90;;;;;;4991476;28;20026;-95
2022/10/22 02:52:41;;;;;;;5.15;1.20;;;13.20;99.90;;;;;;4996322;28;20042;-95
2022/10/22 02:55:10;;;;;;;5.10;1.10;;;13.20;99.90;;;;;;4994623;28;20045;-94
2022/10/22 02:57:36;;;;;;;4.13;1.00;;;13.10;99.90;;;;;;4991091;28;20023;-95
2022/10/22 03:00:06;;;;;;;5.60;1.63;;;13.10;99.90;;;;;;4999454;28;20034;-94
2022/10/22 03:02:32;;;;;;;2.97;0.85;;;13.10;99.90;;;;;;4995657;28;20030;-94
2022/10/22 03:04:58;;;;;;;3.65;0.93;;;13.10;99.90;;;;;;4996276;28;20031;-94
2022/10/22 03:07:23;;;;;;;2.55;0.93;;;13.10;99.90;;;;;;4993953;28;20578;-95
2022/10/22 03:09:49;;;;;;;3.70;0.80;;;13.20;99.90;;;;;;4999152;28;20050;-93
2022/10/22 03:12:15;;;;;;;1.02;0.57;;;13.20;99.90;;;;;;4993502;28;20027;-95
2022/10/22 03:14:40;;;;;;;7.38;0.77;;;13.20;99.90;;;;;;4991757;28;20042;-94
2022/10/22 03:17:06;;;;;;;7.57;1.02;;;13.10;99.90;;;;;;4992231;28;20073;-96
2022/10/22 03:19:32;;;;;;;5.30;1.00;;;13.10;99.90;;;;;;4992045;28;20045;-93
2022/10/22 03:22:08;;;;;;;6.45;1.20;;;13.20;99.90;;;;;;4997821;28;20014;-95
2022/10/22 03:24:41;;;;;;;2.10;0.98;;;13.10;99.90;;;;;;5002015;28;20029;-94
2022/10/22 03:27:07;;;;;;;3.03;1.63;;;13.10;99.90;;;;;;5002322;28;20014;-95
2022/10/22 03:29:36;;;;;;;5.78;1.40;;;13.10;99.90;;;;;;5002203;28;20006;-94
2022/10/22 03:32:02;;;;;;;4.95;1.10;;;13.10;99.90;;;;;;5001972;28;20014;-94
2022/10/22 03:34:31;;;;;;;4.45;1.17;;;13.10;99.90;;;;;;5001753;28;20030;-91
2022/10/22 03:37:00;;;;;;;5.97;1.63;;;13.10;99.90;;;;;;5000692;28;20018;-92
2022/10/22 03:39:30;;;;;;;6.78;1.42;;;13.10;99.90;;;;;;5000741;28;20010;-94
2022/10/22 03:41:56;;;;;;;4.30;1.10;;;13.10;99.90;;;;;;5001048;28;20030;-95
2022/10/22 03:44:25;;;;;;;5.63;1.13;;;13.10;99.90;;;;;;5000747;28;20025;-96
2022/10/22 03:46:53;;;;;;;5.93;1.83;;;13.00;99.90;;;;;;5000405;28;20050;-94
2022/10/22 03:49:18;;;;;;;7.95;1.60;;;13.00;99.90;;;;;;5000317;28;20015;-93
2022/10/22 03:51:44;;;;;;;10.75;1.70;;;13.00;99.90;;;;;;5000451;28;20081;-92
2022/10/22 03:54:10;;;;;;;3.55;1.10;;;13.00;99.90;;;;;;5000995;28;20094;-93
2022/10/22 03:56:36;;;;;;;18.10;2.08;;;13.00;99.90;;;;;;5000830;28;20029;-95
2022/10/22 03:59:02;;;;;;;5.43;1.45;;;13.00;99.90;;;;;;4999918;28;20018;-94
2022/10/22 04:01:29;;;;;;;4.72;1.02;;;13.00;99.90;;;;;;5000811;28;20022;-93
2022/10/22 04:03:55;;;;;;;8.70;1.40;;;13.00;99.90;;;;;;5000917;28;20028;-94
2022/10/22 04:06:24;;;;;;;8.45;2.45;;;13.00;99.90;;;;;;5000664;28;20018;-94
2022/10/22 04:08:52;;;;;;;3.50;1.00;;;12.90;99.90;;;;;;5000526;28;20098;-93
2022/10/22 04:11:17;;;;;;;3.28;1.45;;;12.90;99.90;;;;;;4984802;28;20023;-95
2022/10/22 04:13:44;;;;;;;0.70;0.50;;;12.90;99.90;;;;;;5000331;28;20058;-95
2022/10/22 04:16:14;;;;;;;5.25;0.80;;;12.80;99.90;;;;;;4999512;28;20065;-94
2022/10/22 04:18:44;;;;;;;4.65;0.75;;;12.80;99.90;;;;;;5000733;28;20014;-94
2022/10/22 04:21:11;;;;;;;4.45;1.23;;;12.80;99.90;;;;;;5000328;28;20023;-95
2022/10/22 04:23:38;;;;;;;3.65;0.70;;;12.70;99.90;;;;;;5001097;28;20014;-94
2022/10/22 04:26:06;;;;;;;2.15;0.57;;;12.70;99.90;;;;;;5001090;28;20014;-94
2022/10/22 04:28:33;;;;;;;3.78;0.60;;;12.70;99.90;;;;;;4984749;28;20224;-94
2022/10/22 04:31:08;;;;;;;2.75;0.57;;;12.70;99.90;;;;;;5000299;28;20014;-95
2022/10/22 04:33:34;;;;;;;3.72;0.68;;;12.60;99.90;;;;;;5000174;28;20054;-94
2022/10/22 04:36:04;;;;;;;5.07;1.15;;;12.60;99.90;;;;;;5000212;28;20014;-94
2022/10/22 04:38:30;;;;;;;4.95;0.85;;;12.60;99.90;;;;;;5000549;28;20049;-94
2022/10/22 04:40:57;;;;;;;6.97;1.02;;;12.50;99.90;;;;;;5000383;28;20018;-95
2022/10/22 04:43:22;;;;;;;6.88;1.20;;;12.50;99.90;;;;;;5000297;28;20053;-94
2022/10/22 04:45:48;;;;;;;11.18;1.00;;;12.40;99.90;;;;;;4999314;28;20034;-95
2022/10/22 04:48:14;;;;;;;8.35;1.20;;;12.40;99.90;;;;;;4999308;28;20077;-94
2022/10/22 04:50:39;;;;;;;9.38;1.70;;;12.40;99.90;;;;;;5000252;28;20125;-94
2022/10/22 04:53:05;;;;;;;7.57;1.10;;;12.30;99.90;;;;;;5002407;28;20022;-92
2022/10/22 04:55:31;;;;;;;11.18;1.48;;;12.20;99.90;;;;;;5003650;28;20046;-94
2022/10/22 04:57:56;;;;;;;6.32;1.90;;;12.20;99.90;;;;;;5002934;28;20018;-94
2022/10/22 05:00:23;;;;;;;6.38;0.77;;;12.20;99.90;;;;;;5003442;28;20025;-94
2022/10/22 05:02:51;;;;;;;7.50;1.23;;;12.20;99.90;;;;;;5003789;28;20042;-93
2022/10/22 05:05:16;;;;;;;7.70;1.20;;;12.10;99.90;;;;;;5003739;28;20041;-93
2022/10/22 05:07:42;;;;;;;10.23;0.90;;;12.10;99.90;;;;;;5003768;28;20041;-94
2022/10/22 05:10:09;;;;;;;5.88;1.25;;;12.10;99.90;;;;;;5003813;28;20082;-93
2022/10/22 05:12:35;;;;;;;7.80;1.02;;;12.00;99.90;;;;;;5003033;28;20019;-94
2022/10/22 05:15:01;;;;;;;4.15;0.85;;;12.00;99.90;;;;;;5003390;28;20023;-94
2022/10/22 05:17:26;;;;;;;5.25;1.00;;;11.90;99.90;;;;;;5003224;28;20022;-94
2022/10/22 05:19:52;;;;;;;6.63;1.20;;;11.90;99.90;;;;;;5003346;28;20098;-94
2022/10/22 05:22:18;;;;;;;10.90;1.10;;;11.90;99.90;;;;;;5003861;28;20014;-94
2022/10/22 05:24:44;;;;;;;14.15;1.58;;;11.80;99.90;;;;;;5003501;28;20018;-94
2022/10/22 05:27:09;;;;;;;8.15;1.33;;;11.80;99.90;;;;;;5003112;28;20106;-94
2022/10/22 05:29:36;;;;;;;9.50;1.33;;;11.70;99.90;;;;;;5002736;28;20018;-95
2022/10/22 05:32:03;;;;;;;5.38;1.15;;;11.70;99.90;;;;;;5003356;28;20010;-93
2022/10/22 05:34:28;;;;;;;13.60;1.33;;;11.70;99.90;;;;;;5003027;28;20050;-93
2022/10/22 05:36:55;;;;;;;10.95;1.15;;;11.60;99.90;;;;;;5003326;28;20015;-94
2022/10/22 05:39:21;;;;;;;11.27;1.92;;;11.60;99.90;;;;;;5003345;28;20014;-91
2022/10/22 05:41:47;;;;;;;8.68;1.15;;;11.50;99.90;;;;;;5003189;28;20082;-94
2022/10/22 05:44:12;;;;;;;14.25;2.65;;;11.50;99.90;;;;;;5002928;28;20118;-94
2022/10/22 05:46:39;;;;;;;11.45;1.38;;;11.40;99.90;;;;;;5002896;28;20098;-94
2022/10/22 05:49:06;;;;;;;9.95;1.17;;;11.40;99.90;;;;;;4987078;28;20037;-94
2022/10/22 05:51:33;;;;;;;8.32;2.05;;;11.30;99.90;;;;;;5003104;28;20034;-93
2022/10/22 05:54:01;;;;;;;8.60;1.60;;;11.30;99.90;;;;;;5002724;28;20109;-95
2022/10/22 05:56:29;;;;;;;13.40;1.83;;;11.30;99.90;;;;;;5003273;28;20017;-94
2022/10/22 05:58:56;;;;;;;11.05;1.65;;;11.20;99.90;;;;;;5003260;28;20038;-93
2022/10/22 06:01:24;;;;;;;11.27;1.67;;;11.20;99.90;;;;;;5003260;28;20038;-94
2022/10/22 06:03:54;;;;;;;15.98;1.73;;;11.20;99.90;;;;;;5001520;28;20030;-94
2022/10/22 06:06:22;;;;;;;7.75;1.38;;;11.10;99.90;;;;;;5002597;28;20054;-93
2022/10/22 06:08:50;;;;;;;13.23;1.40;;;11.10;99.90;;;;;;5003475;28;20101;-94
2022/10/22 06:11:17;;;;;;;15.50;1.95;;;11.10;99.90;;;;;;5003491;28;20011;-93
2022/10/22 06:13:46;;;;;;;17.40;1.50;;;11.10;99.90;;;;;;5002565;28;20026;-93
2022/10/22 06:16:13;;;;;;;13.52;1.73;;;11.00;99.90;;;;;;5002402;28;20010;-90
2022/10/22 06:18:40;;;;;;;14.55;2.38;;;11.00;99.90;;;;;;5000120;28;20018;-93
2022/10/22 06:21:10;;;;;;;11.07;1.20;;;11.00;99.90;;;;;;5002030;28;20022;-92
2022/10/22 06:23:37;;;;;;;11.00;1.05;;;11.00;99.90;;;;;;5018852;28;20049;-93
2022/10/22 06:26:04;;;;;;;15.75;1.65;;;10.90;99.90;;;;;;5001595;28;20034;-93
2022/10/22 06:28:33;;;;;;;10.80;1.48;;;10.90;99.90;;;;;;5017239;28;20022;-93
2022/10/22 06:31:02;;;;;;;12.43;1.48;;;10.90;99.90;;;;;;4998871;28;20023;-93
2022/10/22 06:33:30;;;;;;;11.48;1.42;;;10.90;99.90;;;;;;5001447;28;20057;-93
2022/10/22 06:36:06;;;;;;;10.13;1.05;;;10.80;99.90;;;;;;5015987;28;20066;-94
2022/10/22 06:38:33;;;;;;;8.75;1.40;;;10.80;99.90;;;;;;4998343;28;20026;-93
2022/10/22 06:41:17;;;;;;;7.20;1.73;;;10.80;99.90;;;;;;5016878;28;20030;-94
2022/10/22 06:43:46;;;;;;;6.35;1.30;;;10.80;99.90;;;;;;4998898;28;20061;-93
2022/10/22 06:46:16;;;;;;;18.90;1.98;;;10.80;99.90;;;;;;5002451;28;20114;-94
2022/10/22 06:48:46;;;;;;;13.77;2.40;;;10.70;99.90;;;;;;5002235;28;20015;-92
2022/10/22 06:51:11;;;;;;;10.77;1.70;;;10.70;99.90;;;;;;4982818;28;20042;-93
2022/10/22 06:53:39;;;;;;;15.95;2.00;;;10.80;99.90;;;;;;5002006;28;20055;-93
2022/10/22 06:56:08;;;;;;;18.17;2.13;;;10.70;99.90;;;;;;5001479;28;20038;-93
2022/10/22 06:58:38;;;;;;;12.18;2.92;;;10.70;99.90;;;;;;4982634;28;20015;-94
2022/10/22 07:01:07;;;;;;;7.07;1.65;;;10.70;99.90;;;;;;5003723;28;20023;-94
2022/10/22 07:03:48;;;;;;;7.32;1.52;;;10.70;99.90;;;;;;5001691;28;20018;-93
2022/10/22 07:06:16;;;;;;;11.13;2.55;;;10.70;99.90;;;;;;5001657;28;20019;-92
2022/10/22 07:08:42;;;;;;;10.43;1.55;;;10.70;99.90;;;;;;5001334;28;20110;-93
2022/10/22 07:11:12;;;;;;;20.25;1.95;;;10.70;99.90;;;;;;5001653;28;20022;-93
2022/10/22 07:13:45;;;;;;;8.35;1.50;;;10.80;99.90;;;;;;4997310;28;20054;-92
2022/10/22 07:35:13;;;;;;;11.98;1.67;;;10.80;99.90;;;;;;5999535;23;20131;-92
2022/10/22 07:37:40;;;;;;;12.63;1.73;;;10.80;99.90;;;;;;4993664;28;20042;-94
2022/10/22 07:40:06;;;;;;;11.80;1.70;;;10.80;99.90;;;;;;4984101;28;20109;-92
2022/10/22 07:42:32;;;;;;;18.40;2.85;;;10.80;99.90;;;;;;4994955;28;20039;-93
2022/10/22 07:45:01;;;;;;;15.23;1.73;;;10.90;99.90;;;;;;4998923;28;20038;-92
2022/10/22 07:47:26;;;;;;;12.70;2.25;;;10.90;99.90;;;;;;5017808;28;20094;-93
2022/10/22 07:49:55;;;;;;;10.70;2.00;;;10.90;99.90;;;;;;4985355;28;20042;-92
2022/10/22 07:52:22;;;;;;;9.50;1.58;;;10.90;99.90;;;;;;4986017;28;20030;-94
2022/10/22 07:54:48;;;;;;;12.50;1.42;;;11.00;99.90;;;;;;4987870;28;20114;-93
2022/10/22 07:57:14;;;;;;;16.27;1.90;;;11.00;99.90;;;;;;4981693;28;20019;-96
2022/10/22 07:59:39;;;;;;;22.83;2.00;;;11.00;99.90;;;;;;4990655;28;20019;-94
2022/10/22 08:02:05;;;;;;;17.38;1.85;;;11.10;99.90;;;;;;4996195;28;20058;-94
2022/10/22 08:04:31;;;;;;;16.00;1.70;;;11.10;99.90;;;;;;4990532;28;20043;-95
2022/10/22 08:06:57;;;;;;;13.27;1.55;;;11.20;99.90;;;;;;4990795;28;20147;-94
2022/10/22 08:09:23;;;;;;;12.77;2.53;;;11.20;99.90;;;;;;4988438;28;20033;-94
2022/10/22 08:11:50;;;;;;;12.23;1.80;;;11.30;99.90;;;;;;4983084;28;20046;-95
2022/10/22 08:14:15;;;;;;;15.27;1.85;;;11.30;99.90;;;;;;4992046;28;20031;-96
2022/10/22 08:16:41;;;;;;;15.50;1.88;;;11.30;99.90;;;;;;4974463;28;20572;-94
2022/10/22 08:19:07;;;;;;;11.63;1.75;;;11.30;99.90;;;;;;4981522;28;20023;-93
2022/10/22 08:21:32;;;;;;;14.60;2.00;;;11.30;99.90;;;;;;4977970;28;20022;-96
2022/10/22 08:23:58;;;;;;;17.27;1.90;;;11.30;99.90;;;;;;4982175;28;20027;-95
2022/10/22 08:26:24;;;;;;;8.52;1.58;;;11.30;99.90;;;;;;4981998;28;20117;-94
2022/10/22 08:28:50;;;;;;;13.27;2.10;;;11.40;99.90;;;;;;4985976;28;20023;-94
2022/10/22 08:31:15;;;;;;;18.30;2.58;;;11.40;99.90;;;;;;4986448;28;20022;-95
2022/10/22 08:33:42;;;;;;;15.10;1.60;;;11.40;99.90;;;;;;4978210;28;20469;-96
2022/10/22 08:36:08;;;;;;;15.20;2.45;;;11.50;99.90;;;;;;4971810;28;20053;-94
2022/10/22 08:38:34;;;;;;;18.13;2.60;;;11.60;99.90;;;;;;4970205;28;20480;-95
2022/10/22 08:41:08;;;;;;;13.07;2.00;;;11.60;99.90;;;;;;4968192;28;20094;-95
2022/10/22 08:44:04;;;;;;;12.88;1.88;;;11.60;99.90;;;;;;4978897;28;20043;-94
2022/10/22 08:46:43;;;;;;;16.50;2.10;;;11.60;99.90;;;;;;4981558;28;20098;-96
2022/10/22 08:49:17;;;;;;;12.90;1.45;;;11.70;99.90;;;;;;4989631;28;20022;-94
2022/10/22 08:51:43;;;;;;;10.35;1.83;;;11.70;99.90;;;;;;4993999;28;20062;-95
2022/10/22 08:55:03;;;;;;;18.55;1.70;;;11.80;99.90;;;;;;4979043;28;20039;-94
2022/10/22 08:57:57;;;;;;;13.45;1.70;;;11.80;99.90;;;;;;4922370;29;20023;-95
2022/10/22 09:00:45;;;;;;;20.52;2.47;;;11.90;99.90;;;;;;4905351;29;20045;-95
2022/10/22 09:03:22;;;;;;;15.40;2.75;;;12.00;99.90;;;;;;4905576;29;20057;-93
2022/10/22 09:06:03;;;;;;;14.10;2.38;;;12.00;99.90;;;;;;4903913;29;20044;-96
2022/10/22 09:08:32;;;;;;;10.35;1.77;;;12.10;99.90;;;;;;4902512;29;20024;-95
2022/10/22 09:11:23;;;;;;;15.23;1.95;;;12.20;99.90;;;;;;4902325;29;20020;-93
2022/10/22 09:13:50;;;;;;;13.60;1.48;;;12.30;99.90;;;;;;4900759;29;20033;-94
2022/10/22 09:16:34;;;;;;;13.07;1.90;;;12.40;99.90;;;;;;4901970;29;20063;-95
2022/10/22 09:19:21;;;;;;;14.88;1.77;;;12.50;99.90;;;;;;4918434;29;20446;-96
2022/10/22 09:22:02;;;;;;;16.77;2.60;;;12.60;99.90;;;;;;4902289;29;20052;-95
2022/10/22 09:25:16;;;;;;;17.70;3.08;;;12.80;99.90;;;;;;4901957;29;20114;-94
2022/10/22 09:27:42;;;;;;;13.05;2.25;;;13.00;99.90;;;;;;4902867;29;20060;-95
2022/10/22 09:30:19;;;;;;;14.32;2.47;;;13.20;99.90;;;;;;4899001;29;20029;-95
2022/10/22 09:32:44;;;;;;;18.42;2.00;;;13.40;99.90;;;;;;4979831;28;20026;-96
2022/10/22 09:35:13;;;;;;;14.95;1.80;;;13.50;99.90;;;;;;4989582;28;20038;-95
2022/10/22 09:37:50;;;;;;;16.23;1.75;;;13.70;99.90;;;;;;4964261;28;20050;-95
2022/10/22 09:40:16;;;;;;;17.60;2.03;;;13.90;99.90;;;;;;4960555;28;20031;-95
2022/10/22 09:42:47;;;;;;;15.85;2.10;;;14.10;99.90;;;;;;4963990;28;20037;-95
2022/10/22 09:45:24;;;;;;;;;;;14.30;99.90;;;;;;4965009;28;20030;-93
2022/10/22 09:48:01;;;;;;;16.20;2.15;;;14.50;99.90;;;;;;4974190;28;19897;-96
2022/10/22 09:50:48;;;;;;;20.00;2.08;;;14.70;99.90;;;;;;4982226;28;20023;-93
2022/10/22 09:53:28;;;;;;;11.10;1.83;;;14.90;99.90;;;;;;4977862;28;20018;-95
2022/10/22 09:55:57;;;;;;;9.63;1.77;;;15.10;99.90;;;;;;4977313;28;20023;-95
2022/10/22 09:58:23;;;;;;;15.63;1.92;;;15.40;99.90;;;;;;4968393;28;20027;-94
2022/10/22 10:00:58;;;;;;;17.08;2.65;;;15.60;99.90;;;;;;4970999;28;20041;-96
2022/10/22 10:03:27;;;;;;;15.63;2.22;;;15.70;99.90;;;;;;4970024;28;20027;-96
2022/10/22 10:05:57;;;;;;;26.70;2.42;;;15.90;99.90;;;;;;4973483;28;20070;-96
2022/10/22 10:08:23;;;;;;;10.02;1.50;;;16.10;99.90;;;;;;4971995;28;20030;-96
2022/10/22 10:11:12;;;;;;;10.73;2.20;;;16.20;99.90;;;;;;4975150;28;20141;-96
2022/10/22 10:13:42;;;;;;;8.40;1.63;;;16.20;99.90;;;;;;4960678;29;20031;-96
2022/10/22 10:16:29;;;;;;;17.13;2.42;;;16.40;99.90;;;;;;4959966;28;20221;-96
2022/10/22 10:19:27;;;;;;;9.98;1.70;;;16.40;99.90;;;;;;4970192;28;20042;-95
2022/10/22 10:22:28;;;;;;;13.15;2.03;;;16.60;99.90;;;;;;4974569;29;20027;-95
2022/10/22 10:25:22;;;;;;;13.88;1.70;;;16.70;99.90;;;;;;4954718;29;20035;-96
2022/10/22 10:28:00;;;;;;;9.05;1.50;;;16.90;99.90;;;;;;4956276;29;20023;-93
2022/10/22 10:30:26;;;;;;;10.68;2.17;;;17.20;99.90;;;;;;4953271;29;20039;-94
2022/10/22 10:33:20;;;;;;;12.10;1.63;;;17.30;99.90;;;;;;4953672;29;20035;-95
2022/10/22 10:35:58;;;;;;;10.38;1.65;;;17.40;99.90;;;;;;4955855;29;20044;-93
2022/10/22 10:38:45;;;;;;;10.57;1.33;;;17.50;99.90;;;;;;4959127;29;20032;-95
2022/10/22 10:41:37;;;;;;;12.23;1.92;;;17.60;99.90;;;;;;4960316;29;20040;-94
2022/10/22 10:44:35;;;;;;;13.45;2.05;;;17.90;99.90;;;;;;4959931;29;20038;-94
2022/10/22 10:47:13;;;;;;;6.38;1.73;;;18.10;99.90;;;;;;4958061;29;20024;-95
2022/10/22 10:49:43;;;;;;;16.70;1.50;;;18.20;99.90;;;;;;4957480;29;20063;-96
2022/10/22 10:52:30;;;;;;;16.17;1.77;;;18.40;99.90;;;;;;4956255;29;20072;-95
2022/10/22 10:55:15;;;;;;;14.55;2.05;;;18.40;98.20;;;;;;4956399;29;20049;-92
2022/10/22 10:58:13;;;;;;;10.60;1.77;;;18.30;97.10;;;;;;4959696;29;20016;-95
2022/10/22 11:01:13;;;;;;;13.85;2.03;;;18.40;97.10;;;;;;4953548;29;20039;-95
2022/10/22 11:04:03;;;;;;;14.68;1.60;;;18.50;96.60;;;;;;4956013;29;20032;-93
2022/10/22 11:06:31;;;;;;;7.77;1.57;;;18.70;95.60;;;;;;4958285;29;20083;-94
2022/10/22 11:09:23;;;;;;;6.30;1.42;;;18.60;94.10;;;;;;4959821;29;20291;-93
2022/10/22 11:12:03;;;;;;;5.43;1.20;;;18.50;94.20;;;;;;4959877;29;20051;-92
2022/10/22 11:14:40;;;;;;;6.57;1.25;;;18.50;94.50;;;;;;4956999;29;20043;-96
2022/10/22 11:17:24;;;;;;;8.65;1.13;;;18.40;94.10;;;;;;4954994;29;20042;-95
2022/10/22 11:20:01;;;;;;;5.97;1.30;;;18.40;94.20;;;;;;4956822;29;20040;-95
2022/10/22 11:22:43;;;;;;;6.65;1.38;;;18.30;94.30;;;;;;4957838;29;20016;-96
2022/10/22 11:25:23;;;;;;;10.60;1.50;;;18.30;94.30;;;;;;4953447;29;20031;-95
2022/10/22 11:28:14;;;;;;;5.33;1.00;;;18.50;94.80;;;;;;4955996;29;20047;-94
2022/10/22 11:30:48;;;;;;;10.00;1.42;;;18.70;93.20;;;;;;4952325;29;20020;-93
2022/10/22 11:33:23;;;;;;;5.47;1.63;;;18.80;92.80;;;;;;4959955;29;20015;-93
2022/10/22 11:35:50;;;;;;;6.95;1.15;;;19.00;93.00;;;;;;4959064;29;20036;-92
2022/10/22 11:38:23;;;;;;;8.38;1.50;;;19.20;92.60;;;;;;4960098;29;20055;-93
2022/10/22 11:41:15;;;;;;;6.28;1.45;;;19.50;92.00;;;;;;4958564;29;20031;-94
2022/10/22 11:44:21;;;;;;;11.32;1.65;;;19.80;91.70;;;;;;4957180;29;20036;-95
2022/10/22 11:47:19;;;;;;;9.90;1.40;;;20.30;91.00;;;;;;4957369;29;20016;-95
2022/10/22 11:49:57;;;;;;;10.68;1.58;;;20.40;90.20;;;;;;4953538;29;20016;-96
2022/10/22 11:52:35;;;;;;;7.97;1.33;;;20.30;89.50;;;;;;4956175;29;20044;-93
2022/10/22 11:55:02;;;;;;;6.88;1.83;;;20.20;89.30;;;;;;4949479;29;20031;-94
2022/10/22 11:57:38;;;;;;;11.82;1.40;;;20.00;89.30;;;;;;4953346;29;20020;-95
2022/10/22 12:00:40;;;;;;;8.98;1.45;;;20.10;89.80;;;;;;4954151;29;21138;-96
2022/10/22 12:03:32;;;;;;;11.20;1.73;;;20.00;89.70;;;;;;4942771;29;20039;-96
2022/10/22 12:06:04;;;;;;;10.43;1.70;;;20.00;89.10;;;;;;4948395;29;20047;-96
2022/10/22 12:08:31;;;;;;;12.50;1.50;;;19.90;88.90;;;;;;4949238;29;20039;-96
2022/10/22 12:11:34;;;;;;;7.97;1.40;;;19.80;89.50;;;;;;4954585;29;20035;-96
2022/10/22 12:14:23;;;;;;;9.27;1.50;;;19.90;90.10;;;;;;4956934;29;20080;-95
2022/10/22 12:17:00;;;;;;;13.88;2.40;;;20.10;90.10;;;;;;4953699;29;20082;-95
2022/10/22 12:19:43;;;;;;;14.05;1.40;;;20.20;90.10;;;;;;4958839;29;20024;-96
2022/10/22 12:22:09;;;;;;;12.00;1.80;;;20.10;89.90;;;;;;4962050;29;20040;-94
2022/10/22 12:24:39;;;;;;;10.50;1.80;;;20.00;90.10;;;;;;4954696;29;20020;-95
2022/10/22 12:27:20;;;;;;;8.57;1.38;;;20.00;90.00;;;;;;4956123;29;20118;-94
2022/10/22 12:29:46;;;;;;;7.25;1.40;;;20.10;90.20;;;;;;4954020;29;20055;-96
2022/10/22 12:32:15;;;;;;;6.30;1.60;;;20.30;90.20;;;;;;4949847;29;20149;-95
2022/10/22 12:34:53;;;;;;;11.63;2.10;;;20.50;90.00;;;;;;4960972;29;20027;-93
2022/10/22 12:37:20;;;;;;;10.23;1.55;;;20.70;89.30;;;;;;4957898;29;20124;-93
2022/10/22 12:39:46;;;;;;;9.27;1.70;;;20.70;88.30;;;;;;4960535;29;20028;-95
2022/10/22 12:42:15;;;;;;;10.77;1.40;;;20.80;88.30;;;;;;4952130;29;20036;-93
2022/10/22 12:44:43;;;;;;;10.93;2.55;;;20.90;87.30;;;;;;4951893;29;20027;-95
2022/10/22 12:47:17;;;;;;;6.13;1.17;;;20.80;86.80;;;;;;4951086;29;20071;-93
2022/10/22 12:49:48;;;;;;;8.85;1.55;;;20.70;87.20;;;;;;4952960;29;20035;-94
2022/10/22 12:52:21;;;;;;;6.88;1.27;;;20.70;87.20;;;;;;4944326;29;20020;-96
2022/10/22 12:54:51;;;;;;;7.07;1.50;;;20.60;87.10;;;;;;4941488;29;20036;-96
2022/10/22 12:57:19;;;;;;;12.48;1.73;;;20.40;87.70;;;;;;4947346;29;20019;-95
2022/10/22 12:59:49;;;;;;;9.95;1.30;;;20.10;87.90;;;;;;4947818;29;20088;-95
2022/10/22 13:02:23;;;;;;;9.13;1.63;;;19.80;89.20;;;;;;4950999;29;20024;-95
2022/10/22 13:05:19;;;;;;;11.82;2.33;;;19.50;90.10;;;;;;4949920;29;20040;-94
2022/10/22 13:07:51;;;;;;;12.00;1.45;;;19.20;90.80;;;;;;4955349;29;20095;-93
2022/10/22 13:10:30;;;;;;;12.05;1.60;;;18.90;91.40;;;;;;4951364;29;20035;-93
2022/10/22 13:12:57;;;;;;;16.27;2.15;;;18.70;91.80;;;;;;4957739;29;20046;-93
2022/10/22 13:15:29;;;;;;;12.65;2.10;;;18.40;92.40;;;;;;4977376;28;20031;-94
2022/10/22 13:18:13;;;;;;;10.88;2.03;;;18.40;93.00;;;;;;4978787;29;20039;-95
2022/10/22 13:20:57;;;;;;;7.10;1.33;;;18.30;93.20;;;;;;4978711;28;20117;-91
2022/10/22 13:23:26;;;;;;;7.82;1.50;;;18.50;93.60;;;;;;4980490;28;20033;-92
2022/10/22 13:25:58;;;;;;;8.77;1.75;;;18.60;93.30;;;;;;4977586;29;20360;-93
2022/10/22 13:28:25;;;;;;;10.02;1.40;;;18.80;93.20;;;;;;4977653;28;20019;-95
2022/10/22 13:31:00;;;;;;;10.75;1.60;;;19.10;93.00;;;;;;4973097;29;20020;-92